Churchill Airport

Airport
ICAO code: 
CYYQ
Summary
ICAO Region: 
NAM
Territory: 
Location: 
Churchill, Manitoba,
Coordinates: 
Aerial View: 
58° 44' 17.333" N, 94° 4' 14.322" W
Airport BS: 
Non Avian Wildlife Hazards to Aircraft
Airport CFIT: 
Altimeter Temperature Error Correction
Airport GND: 
Aircraft Ground De/Anti Icing
Airport WX: 
Fog
Metar
Observation
CYYQ 271900Z 16008KT 3SM -SN FEW050 BKN100 OVC120 M08/M10 A2974 RMK SC2AC4AC2 SLP074
Station
Churchill, Man.
Date/Time
2021-11-27 19:00:00
Wind direction
160°
Wind speed
08 kts
Lowest cloud amount
few clouds
Temperature
-8°C
Dew point
-10°C
Humidity
85%
Weather condition
light snow

Description

Airport serving Churchill, Manitoba.

Climatology

Subarctic climate (Köppen climate classification Dfc) - long, usually very cold winters, and short, cool to mild summers.

Note

Diversion airfield for commercial aircraft on Polar and NAT routes

Runways

Designator Length Width Surface Rops
7/25 1219 30 GVL No/No
15/33 2804 49 ASP No/No
Airport map: 
Aerial View: 

SKYbrary Partners:

Safety knowledge contributed by: